createdAt,value
2022-11-01T00:00:07.860Z,0.00
2022-11-01T00:01:07.881Z,0.00
2022-11-01T00:02:07.961Z,0.00
2022-11-01T00:03:07.782Z,0.00
2022-11-01T00:04:07.865Z,0.00
2022-11-01T00:05:07.763Z,0.00
2022-11-01T00:06:07.764Z,0.00
2022-11-01T00:07:07.858Z,0.00
2022-11-01T00:08:07.753Z,0.00
2022-11-01T00:09:07.740Z,0.00
2022-11-01T00:10:07.779Z,0.00
2022-11-01T00:11:07.751Z,0.00
2022-11-01T00:12:07.747Z,0.00
2022-11-01T00:13:07.744Z,0.00
2022-11-01T00:14:07.725Z,0.00
2022-11-01T00:15:07.698Z,0.00
2022-11-01T00:16:07.711Z,0.00
2022-11-01T00:17:07.713Z,0.00
2022-11-01T00:18:07.716Z,0.00
2022-11-01T00:19:08.280Z,0.00
2022-11-01T00:20:07.708Z,0.00
2022-11-01T00:21:07.688Z,0.00
2022-11-01T00:22:07.695Z,0.00
2022-11-01T00:23:07.696Z,0.00
2022-11-01T00:24:07.651Z,0.00
2022-11-01T00:25:07.663Z,0.00
2022-11-01T00:26:07.641Z,0.00
2022-11-01T00:27:07.639Z,0.00
2022-11-01T00:28:07.650Z,0.00
2022-11-01T00:29:07.625Z,0.00
2022-11-01T00:30:07.612Z,0.00
2022-11-01T00:31:10.251Z,0.00
2022-11-01T00:32:08.685Z,0.00
2022-11-01T00:33:07.586Z,0.00
2022-11-01T00:34:07.630Z,0.00
2022-11-01T00:35:07.589Z,0.00
2022-11-01T00:36:07.597Z,0.00
2022-11-01T00:37:07.589Z,0.00
2022-11-01T00:38:07.579Z,0.00
2022-11-01T00:39:07.593Z,0.00
2022-11-01T00:40:07.545Z,0.00
2022-11-01T00:41:07.554Z,0.00
2022-11-01T00:42:07.533Z,0.00
2022-11-01T00:43:07.561Z,0.00
2022-11-01T00:44:07.548Z,0.00
2022-11-01T00:45:07.529Z,0.00
2022-11-01T00:46:07.537Z,0.00
2022-11-01T00:47:07.524Z,0.00
2022-11-01T00:48:07.502Z,0.00
2022-11-01T00:49:07.545Z,0.00
2022-11-01T00:50:07.503Z,0.00
2022-11-01T00:51:07.495Z,0.00
2022-11-01T00:52:07.508Z,0.00
2022-11-01T00:53:07.469Z,0.00
2022-11-01T00:54:08.408Z,0.00
2022-11-01T00:55:08.250Z,0.00
2022-11-01T00:56:07.493Z,0.00
2022-11-01T00:57:07.455Z,0.00
2022-11-01T00:58:07.445Z,0.00
2022-11-01T00:59:07.437Z,0.00
2022-11-01T01:00:07.469Z,0.00
2022-11-01T01:01:07.505Z,0.00
2022-11-01T01:02:07.527Z,0.00
2022-11-01T01:03:07.411Z,0.00
2022-11-01T01:04:08.395Z,0.00
2022-11-01T01:05:07.443Z,0.00
2022-11-01T01:06:07.394Z,0.00
2022-11-01T01:07:07.410Z,0.00
2022-11-01T01:08:07.386Z,0.00
2022-11-01T01:09:07.382Z,0.00
2022-11-01T01:10:07.388Z,0.00
2022-11-01T01:11:07.367Z,0.00
2022-11-01T01:12:07.397Z,0.00
2022-11-01T01:13:07.356Z,0.00
2022-11-01T01:14:07.404Z,0.00
2022-11-01T01:15:07.344Z,0.00
2022-11-01T01:16:07.365Z,0.00
2022-11-01T01:17:07.316Z,0.00
2022-11-01T01:18:07.320Z,0.00
2022-11-01T01:19:07.320Z,0.00
2022-11-01T01:20:07.308Z,0.00
2022-11-01T01:21:07.319Z,0.00
2022-11-01T01:22:07.320Z,0.00
2022-11-01T01:23:07.869Z,0.00
2022-11-01T01:24:07.309Z,0.00
2022-11-01T01:25:07.287Z,0.00
2022-11-01T01:26:07.288Z,0.00
2022-11-01T01:27:07.341Z,0.00
2022-11-01T01:28:07.247Z,0.00
2022-11-01T01:29:08.246Z,0.00
2022-11-01T01:30:07.280Z,0.00
2022-11-01T01:31:07.248Z,0.00
2022-11-01T01:32:07.259Z,0.00
2022-11-01T01:33:07.279Z,0.00
2022-11-01T01:34:07.211Z,0.00
2022-11-01T01:35:07.233Z,0.00
2022-11-01T01:36:07.214Z,0.00
2022-11-01T01:37:07.227Z,0.00
2022-11-01T01:38:07.195Z,0.00
2022-11-01T01:39:07.191Z,0.00
2022-11-01T01:40:07.228Z,0.00
2022-11-01T01:41:07.172Z,0.00
2022-11-01T01:42:07.143Z,0.00
2022-11-01T01:43:07.163Z,0.00
2022-11-01T01:44:07.158Z,0.00
2022-11-01T01:45:07.152Z,0.00
2022-11-01T01:46:07.920Z,0.00
2022-11-01T01:47:07.204Z,0.00
2022-11-01T01:48:07.119Z,0.00
2022-11-01T01:49:07.144Z,0.00
2022-11-01T01:50:07.147Z,0.00
2022-11-01T01:51:07.104Z,0.00
2022-11-01T01:52:07.128Z,0.00
2022-11-01T01:53:07.105Z,0.00
2022-11-01T01:54:07.080Z,0.00
2022-11-01T01:55:07.101Z,0.00
2022-11-01T01:56:07.132Z,0.00
2022-11-01T01:57:07.059Z,0.00
2022-11-01T01:58:07.099Z,0.00
2022-11-01T01:59:07.048Z,0.00
2022-11-01T02:00:07.047Z,0.00
2022-11-01T02:01:07.165Z,0.00
2022-11-01T02:02:07.120Z,0.00
2022-11-01T02:03:07.044Z,0.00
2022-11-01T02:04:07.045Z,0.00
2022-11-01T02:05:07.014Z,0.00
2022-11-01T02:06:07.013Z,0.00
2022-11-01T02:07:07.019Z,0.00
2022-11-01T02:08:07.027Z,0.00
2022-11-01T02:09:06.971Z,0.00
2022-11-01T02:10:06.979Z,0.00
2022-11-01T02:11:06.987Z,0.00
2022-11-01T02:12:06.956Z,0.00
2022-11-01T02:13:06.985Z,0.00
2022-11-01T02:14:06.940Z,0.00
2022-11-01T02:15:06.953Z,0.00
2022-11-01T02:16:06.916Z,0.00
2022-11-01T02:17:08.863Z,0.00
2022-11-01T02:18:07.934Z,0.00
2022-11-01T02:19:06.923Z,0.00
2022-11-01T02:20:06.896Z,0.00
2022-11-01T02:21:06.900Z,0.00
2022-11-01T02:22:06.909Z,0.00
2022-11-01T02:23:06.915Z,0.00
2022-11-01T02:24:06.880Z,0.00
2022-11-01T02:25:06.885Z,0.00
2022-11-01T02:26:06.859Z,0.00
2022-11-01T02:27:06.864Z,0.00
2022-11-01T02:28:06.898Z,0.00
2022-11-01T02:29:06.858Z,0.00
2022-11-01T02:30:06.835Z,0.00
2022-11-01T02:31:06.828Z,0.00
2022-11-01T02:32:06.822Z,0.00
2022-11-01T02:33:06.827Z,0.00
2022-11-01T02:34:06.857Z,0.00
2022-11-01T02:35:06.811Z,0.00
2022-11-01T02:36:06.807Z,0.00
2022-11-01T02:37:06.775Z,0.00
2022-11-01T02:38:06.796Z,0.00
2022-11-01T02:39:06.835Z,0.00
2022-11-01T02:40:06.759Z,0.00
2022-11-01T02:41:06.760Z,0.00
2022-11-01T02:42:06.757Z,0.00
2022-11-01T02:43:06.744Z,0.00
2022-11-01T02:44:06.928Z,0.00
2022-11-01T02:45:06.726Z,0.00
2022-11-01T02:46:06.729Z,0.00
2022-11-01T02:47:06.734Z,0.00
2022-11-01T02:48:06.727Z,0.00
2022-11-01T02:49:06.763Z,0.00
2022-11-01T02:50:06.800Z,0.00
2022-11-01T02:51:06.702Z,0.00
2022-11-01T02:52:06.686Z,0.00
2022-11-01T02:53:06.688Z,0.00
2022-11-01T02:54:06.675Z,0.00
2022-11-01T02:55:06.671Z,0.00
2022-11-01T02:56:06.664Z,0.00
2022-11-01T02:57:06.674Z,0.00
2022-11-01T02:58:06.667Z,0.00
2022-11-01T02:59:06.643Z,0.00
2022-11-01T03:00:06.770Z,0.00
2022-11-01T03:01:06.668Z,0.00
2022-11-01T03:02:06.696Z,0.00
2022-11-01T03:03:06.618Z,0.00
2022-11-01T03:04:06.642Z,0.00
2022-11-01T03:05:06.617Z,0.00
2022-11-01T03:06:06.599Z,0.00
2022-11-01T03:07:06.582Z,0.00
2022-11-01T03:08:06.570Z,0.00
2022-11-01T03:09:06.586Z,0.00
2022-11-01T03:10:06.603Z,0.00
2022-11-01T03:11:06.582Z,0.00
2022-11-01T03:12:06.548Z,0.00
2022-11-01T03:13:06.534Z,0.00
2022-11-01T03:14:06.557Z,0.00
2022-11-01T03:15:06.547Z,0.00
2022-11-01T03:16:06.543Z,0.00
2022-11-01T03:17:06.534Z,0.00
2022-11-01T03:18:06.530Z,0.00
2022-11-01T03:19:06.532Z,0.00
2022-11-01T03:20:06.527Z,0.00
2022-11-01T03:21:06.498Z,0.00
2022-11-01T03:22:06.487Z,0.00
2022-11-01T03:23:06.502Z,0.00
2022-11-01T03:24:06.504Z,0.00
2022-11-01T03:25:06.484Z,0.00
2022-11-01T03:26:06.462Z,0.00
2022-11-01T03:27:06.522Z,0.00
2022-11-01T03:28:06.453Z,0.00
2022-11-01T03:29:07.456Z,0.00
2022-11-01T03:30:06.449Z,0.00
2022-11-01T03:31:06.439Z,0.00
2022-11-01T03:32:06.429Z,0.00
2022-11-01T03:33:06.423Z,0.00
2022-11-01T03:34:06.412Z,0.00
2022-11-01T03:35:06.422Z,0.00
2022-11-01T03:36:10.240Z,0.00
2022-11-01T03:37:08.403Z,0.00
2022-11-01T03:38:06.405Z,0.00
2022-11-01T03:39:06.380Z,0.00
2022-11-01T03:40:06.415Z,0.00
2022-11-01T03:41:06.372Z,0.00
2022-11-01T03:42:06.365Z,0.00
2022-11-01T03:43:06.352Z,0.00
2022-11-01T03:44:06.350Z,0.00
2022-11-01T03:45:06.371Z,0.00
2022-11-01T03:46:06.343Z,0.00
2022-11-01T03:47:06.402Z,0.00
2022-11-01T03:48:06.316Z,0.00
2022-11-01T03:49:06.315Z,0.00
2022-11-01T03:50:06.335Z,0.00
2022-11-01T03:51:06.308Z,0.00
2022-11-01T03:52:06.310Z,0.00
2022-11-01T03:53:06.300Z,0.00
2022-11-01T03:54:06.273Z,0.00
2022-11-01T03:55:06.278Z,0.00
2022-11-01T03:56:06.286Z,0.00
2022-11-01T03:57:06.277Z,0.00
2022-11-01T03:58:06.393Z,0.00
2022-11-01T03:59:06.247Z,0.00
2022-11-01T04:00:06.324Z,0.00
2022-11-01T04:01:06.349Z,0.00
2022-11-01T04:02:06.531Z,0.00
2022-11-01T04:03:06.587Z,0.00
2022-11-01T04:04:06.223Z,0.00
2022-11-01T04:05:06.199Z,0.00
2022-11-01T04:06:06.202Z,0.00
2022-11-01T04:07:06.191Z,0.00
2022-11-01T04:08:06.230Z,0.00
2022-11-01T04:09:06.184Z,0.00
2022-11-01T04:10:06.335Z,0.00
2022-11-01T04:11:06.178Z,0.00
2022-11-01T04:12:06.167Z,0.00
2022-11-01T04:13:06.361Z,0.00
2022-11-01T04:14:06.191Z,0.00
2022-11-01T04:15:06.141Z,0.00
2022-11-01T04:16:06.146Z,0.00
2022-11-01T04:17:06.131Z,0.00
2022-11-01T04:18:06.110Z,0.00
2022-11-01T04:19:06.134Z,0.00
2022-11-01T04:20:06.121Z,0.00
2022-11-01T04:21:06.184Z,0.00
2022-11-01T04:22:06.169Z,0.00
2022-11-01T04:23:06.422Z,0.00
2022-11-01T04:24:06.090Z,0.00
2022-11-01T04:25:06.074Z,0.00
2022-11-01T04:26:06.097Z,0.00
2022-11-01T04:27:06.078Z,0.00
2022-11-01T04:28:06.054Z,0.00
2022-11-01T04:29:06.084Z,0.00
2022-11-01T04:30:06.030Z,0.00
2022-11-01T04:31:06.085Z,0.00
2022-11-01T04:32:06.046Z,0.00
2022-11-01T04:33:06.005Z,0.00
2022-11-01T04:34:06.014Z,0.00
2022-11-01T04:36:05.998Z,0.00
2022-11-01T04:37:06.007Z,0.00
2022-11-01T04:38:07.110Z,0.00
2022-11-01T04:39:05.990Z,0.00
2022-11-01T04:40:05.974Z,0.00
2022-11-01T04:41:05.987Z,0.00
2022-11-01T04:42:05.975Z,0.00
2022-11-01T04:43:05.953Z,0.00
2022-11-01T04:44:06.882Z,0.00
2022-11-01T04:45:05.930Z,0.00
2022-11-01T04:46:05.951Z,0.00
2022-11-01T04:47:05.948Z,0.00
2022-11-01T04:48:06.024Z,0.00
2022-11-01T04:49:05.911Z,0.00
2022-11-01T04:50:05.900Z,0.00
2022-11-01T04:51:05.972Z,0.00
2022-11-01T04:52:05.903Z,0.00
2022-11-01T04:53:06.045Z,0.00
2022-11-01T04:54:05.892Z,0.00
2022-11-01T04:55:05.929Z,0.00
2022-11-01T04:56:05.877Z,0.00
2022-11-01T04:57:05.858Z,0.00
2022-11-01T04:58:05.866Z,0.00
2022-11-01T04:59:05.850Z,0.00
2022-11-01T05:00:05.826Z,0.00
2022-11-01T05:01:06.045Z,0.00
2022-11-01T05:02:06.414Z,0.00
2022-11-01T05:03:06.342Z,0.00
2022-11-01T05:04:05.884Z,0.00
2022-11-01T05:05:05.807Z,0.00
2022-11-01T05:06:05.834Z,0.00
2022-11-01T05:07:05.955Z,0.00
2022-11-01T05:08:05.784Z,0.00
2022-11-01T05:09:05.812Z,0.00
2022-11-01T05:10:05.771Z,0.00
2022-11-01T05:11:05.777Z,0.00
2022-11-01T05:12:05.780Z,0.00
2022-11-01T05:13:06.027Z,0.00
2022-11-01T05:14:05.775Z,0.00
2022-11-01T05:15:05.747Z,0.00
2022-11-01T05:16:18.782Z,0.00
2022-11-01T05:17:07.748Z,0.00
2022-11-01T05:18:05.716Z,0.00
2022-11-01T05:19:05.711Z,0.00
2022-11-01T05:20:05.732Z,0.00
2022-11-01T05:21:05.711Z,0.00
2022-11-01T05:22:05.711Z,0.00
2022-11-01T05:23:05.987Z,0.00
2022-11-01T05:24:05.680Z,0.00
2022-11-01T05:25:05.680Z,0.00
2022-11-01T05:26:05.681Z,0.00
2022-11-01T05:27:05.665Z,0.00
2022-11-01T05:28:31.638Z,0.00
2022-11-01T05:29:09.094Z,0.00
2022-11-01T05:30:06.642Z,0.00
2022-11-01T05:31:05.651Z,0.00
2022-11-01T05:32:05.672Z,0.00
2022-11-01T05:33:05.639Z,0.00
2022-11-01T05:34:06.400Z,0.00
2022-11-01T05:35:05.632Z,0.00
2022-11-01T05:36:05.707Z,0.00
2022-11-01T05:37:05.601Z,0.00
2022-11-01T05:38:05.653Z,0.00
2022-11-01T05:39:05.649Z,0.00
2022-11-01T05:40:06.582Z,0.00
2022-11-01T05:41:05.644Z,0.00
2022-11-01T05:42:05.585Z,0.00
2022-11-01T05:43:05.796Z,0.00
2022-11-01T05:44:05.568Z,0.00
2022-11-01T05:45:05.553Z,0.00
2022-11-01T05:46:05.581Z,0.00
2022-11-01T05:47:05.550Z,0.00
2022-11-01T05:48:05.549Z,0.00
2022-11-01T05:49:05.558Z,0.00
2022-11-01T05:50:06.391Z,0.00
2022-11-01T05:51:05.540Z,0.00
2022-11-01T05:52:05.542Z,0.00
2022-11-01T05:53:05.528Z,0.00
2022-11-01T05:54:05.502Z,0.00
2022-11-01T05:55:05.502Z,0.00
2022-11-01T05:56:05.510Z,0.00
2022-11-01T05:57:05.503Z,0.00
2022-11-01T05:58:06.410Z,0.00
2022-11-01T05:59:05.515Z,0.00
2022-11-01T06:00:05.487Z,0.00
2022-11-01T06:01:06.385Z,0.00
2022-11-01T06:02:06.543Z,0.00
2022-11-01T06:03:06.912Z,0.00
2022-11-01T06:04:05.480Z,0.00
2022-11-01T06:05:05.450Z,0.00
2022-11-01T06:06:05.450Z,0.00
2022-11-01T06:07:05.414Z,0.00
2022-11-01T06:08:05.418Z,0.00
2022-11-01T06:09:05.414Z,0.00
2022-11-01T06:10:05.444Z,0.00
2022-11-01T06:11:05.414Z,0.00
2022-11-01T06:12:05.430Z,0.00
2022-11-01T06:13:05.768Z,0.00
2022-11-01T06:14:05.394Z,0.00
2022-11-01T06:15:05.378Z,0.00
2022-11-01T06:16:05.386Z,0.00
2022-11-01T06:17:05.359Z,0.00
2022-11-01T06:18:05.921Z,0.00
2022-11-01T06:19:05.357Z,0.00
2022-11-01T06:20:05.351Z,0.00
2022-11-01T06:21:05.354Z,0.00
2022-11-01T06:22:05.362Z,0.00
2022-11-01T06:23:05.346Z,0.00
2022-11-01T06:24:05.319Z,0.00
2022-11-01T06:25:05.338Z,0.00
2022-11-01T06:26:05.341Z,0.00
2022-11-01T06:27:09.839Z,0.00
2022-11-01T06:28:07.296Z,0.00
2022-11-01T06:29:05.302Z,5.62
2022-11-01T06:30:05.309Z,5.62
2022-11-01T06:32:05.331Z,5.62
2022-11-01T06:33:05.577Z,5.62
2022-11-01T06:34:05.253Z,5.62
2022-11-01T06:35:05.240Z,5.62
2022-11-01T06:36:05.265Z,5.62
2022-11-01T06:37:05.237Z,5.62
2022-11-01T06:38:05.239Z,5.62
2022-11-01T06:39:05.247Z,5.62
2022-11-01T06:40:05.211Z,5.62
2022-11-01T06:41:05.214Z,11.25
2022-11-01T06:42:05.220Z,11.25
2022-11-01T06:43:05.601Z,11.25
2022-11-01T06:44:05.197Z,11.25
2022-11-01T06:45:05.246Z,11.25
2022-11-01T06:46:05.181Z,11.25
2022-11-01T06:47:05.257Z,11.25
2022-11-01T06:48:05.495Z,11.25
2022-11-01T06:49:05.187Z,11.25
2022-11-01T06:50:05.153Z,11.25
2022-11-01T06:51:05.167Z,11.25
2022-11-01T06:52:05.168Z,11.25
2022-11-01T06:53:05.138Z,11.25
2022-11-01T06:54:05.147Z,11.25
2022-11-01T06:55:05.131Z,11.25
2022-11-01T06:56:05.156Z,11.25
2022-11-01T06:57:05.122Z,11.25
2022-11-01T06:58:05.417Z,11.25
2022-11-01T06:59:05.104Z,11.25
2022-11-01T07:00:05.090Z,11.25
2022-11-01T07:01:05.154Z,11.25
2022-11-01T07:02:05.210Z,11.25
2022-11-01T07:03:05.882Z,16.88
2022-11-01T07:04:05.104Z,16.88
2022-11-01T07:05:05.891Z,16.88
2022-11-01T07:06:05.075Z,16.88
2022-11-01T07:07:05.129Z,16.88
2022-11-01T07:08:05.325Z,16.88
2022-11-01T07:09:05.060Z,16.88
2022-11-01T07:10:05.023Z,16.88
2022-11-01T07:11:05.059Z,22.50
2022-11-01T07:12:05.030Z,22.50
2022-11-01T07:13:05.043Z,28.12
2022-11-01T07:14:05.007Z,28.12
2022-11-01T07:15:05.024Z,28.12
2022-11-01T07:16:05.007Z,28.12
2022-11-01T07:17:05.007Z,28.12
2022-11-01T07:18:05.282Z,33.75
2022-11-01T07:19:04.983Z,33.75
2022-11-01T07:20:04.993Z,39.38
2022-11-01T07:21:04.974Z,39.38
2022-11-01T07:22:04.987Z,45.00
2022-11-01T07:23:05.247Z,50.62
2022-11-01T07:24:04.950Z,56.25
2022-11-01T07:25:04.947Z,61.88
2022-11-01T07:26:04.941Z,61.88
2022-11-01T07:27:04.993Z,67.50
2022-11-01T07:28:04.929Z,67.50
2022-11-01T07:29:04.982Z,73.12
2022-11-01T07:30:04.930Z,73.12
2022-11-01T07:31:04.902Z,78.75
2022-11-01T07:32:04.938Z,78.75
2022-11-01T07:33:05.288Z,84.38
2022-11-01T07:34:04.894Z,90.00
2022-11-01T07:35:04.903Z,90.00
2022-11-01T07:36:04.882Z,95.62
2022-11-01T07:37:04.894Z,101.25
2022-11-01T07:38:08.091Z,106.88
2022-11-01T07:39:05.873Z,106.88
2022-11-01T07:40:04.853Z,106.88
2022-11-01T07:41:04.894Z,112.50
2022-11-01T07:42:04.870Z,129.38
2022-11-01T07:43:04.841Z,135.00
2022-11-01T07:44:04.837Z,123.75
2022-11-01T07:45:06.957Z,118.12
2022-11-01T07:46:05.832Z,112.50
2022-11-01T07:47:04.830Z,135.00
2022-11-01T07:48:05.311Z,151.88
2022-11-01T07:49:04.795Z,157.50
2022-11-01T07:50:04.799Z,157.50
2022-11-01T07:51:04.812Z,174.38
2022-11-01T07:52:04.800Z,174.38
2022-11-01T07:53:04.825Z,180.00
2022-11-01T07:54:04.796Z,185.62
2022-11-01T07:55:04.754Z,196.88
2022-11-01T07:56:04.796Z,213.75
2022-11-01T07:57:04.763Z,213.75
2022-11-01T07:58:04.908Z,213.75
2022-11-01T07:59:04.733Z,208.12
2022-11-01T08:00:04.729Z,213.75
2022-11-01T08:01:04.797Z,213.75
2022-11-01T08:02:07.850Z,225.00
2022-11-01T08:03:05.163Z,202.50
2022-11-01T08:04:04.707Z,180.00
2022-11-01T08:05:04.717Z,185.62
2022-11-01T08:06:04.682Z,196.88
2022-11-01T08:07:04.726Z,191.25
2022-11-01T08:08:05.107Z,185.62
2022-11-01T08:09:04.683Z,191.25
2022-11-01T08:10:04.659Z,213.75
2022-11-01T08:11:04.690Z,202.50
2022-11-01T08:12:04.663Z,180.00
2022-11-01T08:13:04.675Z,174.38
2022-11-01T08:14:07.215Z,151.88
2022-11-01T08:15:04.641Z,157.50
2022-11-01T08:16:04.634Z,146.25
2022-11-01T08:17:04.635Z,146.25
2022-11-01T08:18:04.997Z,146.25
2022-11-01T08:19:04.602Z,157.50
2022-11-01T08:20:04.619Z,157.50
2022-11-01T08:21:04.587Z,157.50
2022-11-01T08:22:04.605Z,163.12
2022-11-01T08:23:04.914Z,157.50
2022-11-01T08:24:04.561Z,157.50
2022-11-01T08:25:04.618Z,168.75
2022-11-01T08:26:04.559Z,174.38
2022-11-01T08:27:04.564Z,180.00
2022-11-01T08:28:04.544Z,180.00
2022-11-01T08:29:05.360Z,185.62
2022-11-01T08:30:04.544Z,185.62
2022-11-01T08:31:04.517Z,191.25
2022-11-01T08:32:04.520Z,202.50
2022-11-01T08:33:05.913Z,208.12
2022-11-01T08:34:04.505Z,213.75
2022-11-01T08:35:04.616Z,213.75
2022-11-01T08:36:04.491Z,219.38
2022-11-01T08:37:04.502Z,225.00
2022-11-01T08:38:04.476Z,230.62
2022-11-01T08:39:04.546Z,225.00
2022-11-01T08:40:04.464Z,225.00
2022-11-01T08:41:04.500Z,225.00
2022-11-01T08:42:04.445Z,225.00
2022-11-01T08:43:04.954Z,230.62
2022-11-01T08:44:04.464Z,213.75
2022-11-01T08:45:04.440Z,208.12
2022-11-01T08:46:04.503Z,208.12
2022-11-01T08:47:04.416Z,213.75
2022-11-01T08:48:04.408Z,213.75
2022-11-01T08:49:06.281Z,219.38
2022-11-01T08:50:11.382Z,219.38
2022-11-01T08:51:07.053Z,219.38
2022-11-01T08:52:05.408Z,225.00
2022-11-01T08:53:04.795Z,225.00
2022-11-01T08:54:04.436Z,225.00
2022-11-01T08:55:04.390Z,236.25
2022-11-01T08:56:04.434Z,247.50
2022-11-01T08:57:04.439Z,247.50
2022-11-01T08:58:04.917Z,253.12
2022-11-01T08:59:04.348Z,258.75
2022-11-01T09:00:05.054Z,270.00
2022-11-01T09:01:04.428Z,270.00
2022-11-01T09:02:04.481Z,270.00
2022-11-01T09:03:04.347Z,275.62
2022-11-01T09:04:04.369Z,281.25
2022-11-01T09:05:04.944Z,286.88
2022-11-01T09:06:04.312Z,281.25
2022-11-01T09:07:04.357Z,286.88
2022-11-01T09:08:04.728Z,275.62
2022-11-01T09:09:04.452Z,270.00
2022-11-01T09:10:04.283Z,275.62
2022-11-01T09:11:04.340Z,275.62
2022-11-01T09:12:04.302Z,275.62
2022-11-01T09:13:04.656Z,275.62
2022-11-01T09:14:04.230Z,275.62
2022-11-01T09:15:04.352Z,292.50
2022-11-01T09:16:04.261Z,309.38
2022-11-01T09:17:06.203Z,376.88
2022-11-01T09:18:04.359Z,573.75
2022-11-01T09:19:04.290Z,641.25
2022-11-01T09:20:04.312Z,551.25
2022-11-01T09:21:05.804Z,759.38
2022-11-01T09:22:04.907Z,708.75
2022-11-01T09:23:05.413Z,444.38
2022-11-01T09:24:04.166Z,388.12
2022-11-01T09:25:04.239Z,354.38
2022-11-01T09:26:05.402Z,343.12
2022-11-01T09:27:04.246Z,461.25
2022-11-01T09:28:05.850Z,421.88
2022-11-01T09:29:06.539Z,416.25
2022-11-01T09:30:04.234Z,410.62
2022-11-01T09:31:19.584Z,472.50
2022-11-01T09:32:07.897Z,343.12
2022-11-01T09:33:06.925Z,303.75
2022-11-01T09:34:04.154Z,298.12
2022-11-01T09:35:05.325Z,292.50
2022-11-01T09:36:05.042Z,298.12
2022-11-01T09:37:06.113Z,331.88
2022-11-01T09:38:04.174Z,286.88
2022-11-01T09:39:04.238Z,270.00
2022-11-01T09:40:05.481Z,264.38
2022-11-01T09:41:04.052Z,258.75
2022-11-01T09:42:05.037Z,258.75
2022-11-01T09:43:04.820Z,253.12
2022-11-01T09:44:04.126Z,236.25
2022-11-01T09:45:04.154Z,225.00
2022-11-01T09:46:04.099Z,219.38
2022-11-01T09:47:04.074Z,230.62
2022-11-01T09:48:04.418Z,253.12
2022-11-01T09:49:05.030Z,270.00
2022-11-01T09:50:04.143Z,264.38
2022-11-01T09:51:03.985Z,298.12
2022-11-01T09:52:03.977Z,309.38
2022-11-01T09:53:03.990Z,388.12
2022-11-01T09:54:03.985Z,365.62
2022-11-01T09:55:03.973Z,568.12
2022-11-01T09:56:03.953Z,680.62
2022-11-01T09:57:03.965Z,573.75
2022-11-01T09:58:04.262Z,472.50
2022-11-01T09:59:03.949Z,523.12
2022-11-01T10:00:03.922Z,804.38
2022-11-01T10:01:03.958Z,466.88
2022-11-01T10:02:09.536Z,686.25
2022-11-01T10:03:05.952Z,759.38
2022-11-01T10:04:03.920Z,1243.12
2022-11-01T10:05:03.889Z,1158.75
2022-11-01T10:06:03.880Z,990.00
2022-11-01T10:07:03.912Z,1237.50
2022-11-01T10:08:04.208Z,1417.50
2022-11-01T10:09:03.869Z,1333.12
2022-11-01T10:10:03.883Z,1372.50
2022-11-01T10:11:03.872Z,1479.38
2022-11-01T10:12:03.853Z,1698.75
2022-11-01T10:13:03.858Z,2041.88
2022-11-01T10:14:03.850Z,1996.88
2022-11-01T10:15:03.901Z,2300.62
2022-11-01T10:16:03.850Z,2520.00
2022-11-01T10:17:03.824Z,2593.12
2022-11-01T10:18:04.203Z,1434.38
2022-11-01T10:19:03.841Z,2306.25
2022-11-01T10:20:03.869Z,2317.50
2022-11-01T10:21:03.803Z,2109.38
2022-11-01T10:22:03.834Z,2300.62
2022-11-01T10:23:04.357Z,2677.50
2022-11-01T10:24:03.772Z,2475.00
2022-11-01T10:25:03.798Z,2604.38
2022-11-01T10:26:03.777Z,2520.00
2022-11-01T10:27:03.770Z,2171.25
2022-11-01T10:28:03.773Z,2559.38
2022-11-01T10:29:03.754Z,2840.62
2022-11-01T10:30:03.742Z,2655.00
2022-11-01T10:31:03.762Z,2272.50
2022-11-01T10:32:03.747Z,2058.75
2022-11-01T10:33:04.140Z,2441.25
2022-11-01T10:34:03.729Z,2396.25
2022-11-01T10:35:03.712Z,540.00
2022-11-01T10:36:03.723Z,579.38
2022-11-01T10:37:03.721Z,838.12
2022-11-01T10:38:23.530Z,793.12
2022-11-01T10:40:08.389Z,438.75
2022-11-01T10:41:04.658Z,433.12
2022-11-01T10:42:03.707Z,455.62
2022-11-01T10:43:03.662Z,455.62
2022-11-01T10:44:03.699Z,450.00
2022-11-01T10:45:03.642Z,551.25
2022-11-01T10:46:04.645Z,2548.12
2022-11-01T10:47:03.666Z,2266.88
2022-11-01T10:48:03.957Z,2925.00
2022-11-01T10:49:03.632Z,528.75
2022-11-01T10:50:06.520Z,466.88
2022-11-01T10:51:04.612Z,720.00
2022-11-01T10:52:03.614Z,3330.00
2022-11-01T10:53:03.722Z,2846.25
2022-11-01T10:54:03.601Z,2227.50
2022-11-01T10:55:03.599Z,2716.88
2022-11-01T10:56:03.633Z,3397.50
2022-11-01T10:57:03.579Z,4983.75
2022-11-01T10:58:04.030Z,5051.25
2022-11-01T10:59:03.595Z,3768.75
2022-11-01T11:00:03.564Z,3616.88
2022-11-01T11:01:03.664Z,3363.75
2022-11-01T11:02:03.652Z,3228.75
2022-11-01T11:03:03.548Z,3245.62
2022-11-01T11:04:03.562Z,3211.88
2022-11-01T11:05:03.534Z,2851.88
2022-11-01T11:06:03.543Z,3116.25
2022-11-01T11:07:03.608Z,3093.75
2022-11-01T11:08:03.947Z,2970.00
2022-11-01T11:09:03.644Z,2671.88
2022-11-01T11:10:03.835Z,2621.25
2022-11-01T11:11:03.504Z,2750.62
2022-11-01T11:12:03.507Z,2806.88
2022-11-01T11:13:03.968Z,2835.00
2022-11-01T11:14:03.511Z,2716.88
2022-11-01T11:15:03.491Z,2958.75
2022-11-01T11:16:03.492Z,2936.25
2022-11-01T11:17:04.383Z,3093.75
2022-11-01T11:18:04.479Z,2975.62
2022-11-01T11:19:03.471Z,2705.62
2022-11-01T11:20:03.475Z,2790.00
2022-11-01T11:21:03.456Z,2998.12
2022-11-01T11:22:03.448Z,2925.00
2022-11-01T11:23:03.875Z,2846.25
2022-11-01T11:24:03.516Z,2970.00
2022-11-01T11:25:03.465Z,2919.38
2022-11-01T11:26:03.432Z,3060.00
2022-11-01T11:27:03.432Z,3262.50
2022-11-01T11:28:03.894Z,2986.88
2022-11-01T11:29:03.447Z,3127.50
2022-11-01T11:30:03.400Z,3121.88
2022-11-01T11:31:03.401Z,3003.75
2022-11-01T11:32:03.447Z,2880.00
2022-11-01T11:33:03.404Z,2970.00
2022-11-01T11:34:03.368Z,3037.50
2022-11-01T11:35:03.374Z,2936.25
2022-11-01T11:36:03.351Z,3245.62
2022-11-01T11:37:03.342Z,3324.38
2022-11-01T11:38:03.710Z,3386.25
2022-11-01T11:39:03.340Z,3301.88
2022-11-01T11:40:03.375Z,3138.75
2022-11-01T11:41:03.332Z,3290.62
2022-11-01T11:42:03.308Z,3465.00
2022-11-01T11:43:03.359Z,3301.88
2022-11-01T11:44:03.312Z,3178.12
2022-11-01T11:45:03.337Z,3223.12
2022-11-01T11:46:03.269Z,3166.88
2022-11-01T11:47:03.259Z,3048.75
2022-11-01T11:48:03.633Z,2643.75
2022-11-01T11:49:03.264Z,2385.00
2022-11-01T11:50:03.269Z,3099.38
2022-11-01T11:51:03.244Z,3223.12
2022-11-01T11:52:03.243Z,2655.00
2022-11-01T11:53:03.273Z,2581.88
2022-11-01T11:54:03.211Z,2272.50
2022-11-01T11:55:03.250Z,1906.88
2022-11-01T11:56:03.215Z,1771.88
2022-11-01T11:57:03.207Z,1788.75
2022-11-01T11:58:03.594Z,1873.12
2022-11-01T11:59:07.509Z,1935.00
2022-11-01T12:00:05.191Z,1906.88
2022-11-01T12:01:04.196Z,2278.12
2022-11-01T12:02:03.306Z,2660.62
2022-11-01T12:03:03.469Z,2745.00
2022-11-01T12:04:03.159Z,2919.38
2022-11-01T12:05:03.141Z,3043.12
2022-11-01T12:06:03.150Z,3071.25
2022-11-01T12:07:03.172Z,3273.75
2022-11-01T12:08:03.128Z,2896.88
2022-11-01T12:09:03.146Z,2126.25
2022-11-01T12:10:03.166Z,2739.38
2022-11-01T12:11:03.120Z,2615.62
2022-11-01T12:12:03.113Z,2227.50
2022-11-01T12:13:03.389Z,2475.00
2022-11-01T12:14:03.100Z,2458.12
2022-11-01T12:15:03.073Z,2846.25
2022-11-01T12:16:03.079Z,2559.38
2022-11-01T12:17:03.075Z,2818.12
2022-11-01T12:18:03.360Z,2891.25
2022-11-01T12:19:03.173Z,2148.75
2022-11-01T12:20:04.061Z,1755.00
2022-11-01T12:21:03.058Z,1794.38
2022-11-01T12:22:03.045Z,1771.88
2022-11-01T12:23:03.886Z,1811.25
2022-11-01T12:24:03.033Z,2098.12
2022-11-01T12:25:03.011Z,2356.88
2022-11-01T12:26:03.029Z,2385.00
2022-11-01T12:27:02.992Z,2193.75
2022-11-01T12:28:03.224Z,2418.75
2022-11-01T12:29:03.023Z,2272.50
2022-11-01T12:30:03.013Z,2340.00
2022-11-01T12:31:02.971Z,2480.62
2022-11-01T12:32:03.963Z,2368.12
2022-11-01T12:33:03.016Z,2390.62
2022-11-01T12:34:02.946Z,2250.00
2022-11-01T12:35:03.965Z,2193.75
2022-11-01T12:36:02.940Z,2165.62
2022-11-01T12:37:02.958Z,2334.38
2022-11-01T12:38:03.329Z,2306.25
2022-11-01T12:39:02.911Z,2030.62
2022-11-01T12:40:02.921Z,1710.00
2022-11-01T12:41:02.939Z,1788.75
2022-11-01T12:42:02.892Z,1906.88
2022-11-01T12:43:02.891Z,1811.25
2022-11-01T12:44:02.887Z,1687.50
2022-11-01T12:45:02.875Z,1901.25
2022-11-01T12:46:02.883Z,1822.50
2022-11-01T12:47:02.868Z,1681.88
2022-11-01T12:48:03.151Z,1625.62
2022-11-01T12:49:02.860Z,2261.25
2022-11-01T12:50:02.853Z,2221.88
2022-11-01T12:51:37.339Z,2103.75
2022-11-01T12:52:02.877Z,1901.25
2022-11-01T12:53:03.248Z,1895.62